Lulworth, United Kingdom
Current Conditions -  °F | °C
As of 7:20 AM on Thursday 18 Dec 2014 (Local Time) from EGHH Reporting Station
Broken Clouds Broken Clouds  
Wind Chill: 54°   Ceiling: 900
Heat Index: 54°   Visibility: 6mi
Dew Point: 52°   Wind: 17mph
Humidity: 94%   Direction: 260°W
Pressure: 29.88"   Gusts: NA
Location:  50.62°N, 2.17°W
Report Text: EGHH 180720Z 26015KT 9999 BKN009 12/11 Q1012
Loading
Personal Weather Stations






























Interactive Weather Map New forecast layout! Learn more

10-Day Weather Forecast

Advertisements
Track Severe Weather on mobile